Time,TemperatureF,DewpointF,PressureIn,WindDirection,WindDirectionDegrees,WindSpeedMPH,WindSpeedGustMPH,Humidity,HourlyPrecipIn,Conditions,Clouds,dailyrainin,SoftwareType,DateUTC
2013-07-30 00:02:00,66.0,54.0,30.08,West,259,0.0,0.0,66,0.00,,,0.00,,2013-07-30 08:02:00,
2013-07-30 00:12:00,66.0,54.0,30.08,West,259,0.0,0.0,66,0.00,,,0.00,,2013-07-30 08:12:00,
2013-07-30 00:22:00,63.0,53.0,30.09,West,259,0.0,0.0,69,0.00,,,0.00,,2013-07-30 08:22:00,
2013-07-30 00:32:00,63.0,53.0,30.09,West,259,0.0,0.0,69,0.00,,,0.00,,2013-07-30 08:32:00,
2013-07-30 00:52:00,62.0,53.0,30.09,West,259,0.0,0.0,72,0.00,,,0.00,,2013-07-30 08:52:00,
2013-07-30 01:02:00,62.0,53.0,30.09,West,259,0.0,0.0,72,0.00,,,0.00,,2013-07-30 09:02:00,
2013-07-30 01:12:00,62.0,53.0,30.09,West,259,0.0,0.0,72,0.00,,,0.00,,2013-07-30 09:12:00,
2013-07-30 01:22:00,62.0,53.0,30.09,West,259,0.0,0.0,72,0.00,,,0.00,,2013-07-30 09:22:00,
2013-07-30 01:32:00,62.0,53.0,30.09,West,259,0.0,0.0,72,0.00,,,0.00,,2013-07-30 09:32:00,
2013-07-30 01:43:00,60.0,52.0,30.10,West,259,0.0,0.0,74,0.00,,,0.00,,2013-07-30 09:43:00,
2013-07-30 01:53:00,60.0,52.0,30.10,West,259,0.0,0.0,74,0.00,,,0.00,,2013-07-30 09:53:00,
2013-07-30 02:02:00,60.0,52.0,30.10,West,259,0.0,0.0,74,0.00,,,0.00,,2013-07-30 10:02:00,
2013-07-30 02:12:00,60.0,52.0,30.10,West,259,0.0,0.0,74,0.00,,,0.00,,2013-07-30 10:12:00,
2013-07-30 02:22:00,58.0,50.0,30.11,West,259,0.0,0.0,76,0.00,,,0.00,,2013-07-30 10:22:00,
2013-07-30 02:32:00,58.0,50.0,30.11,West,259,0.0,0.0,76,0.00,,,0.00,,2013-07-30 10:32:00,
2013-07-30 02:43:00,59.0,52.0,30.11,West,259,0.0,0.0,78,0.00,,,0.00,,2013-07-30 10:43:00,
2013-07-30 02:52:00,59.0,52.0,30.11,West,259,0.0,0.0,78,0.00,,,0.00,,2013-07-30 10:52:00,
2013-07-30 03:02:00,59.0,52.0,30.11,West,259,0.0,0.0,78,0.00,,,0.00,,2013-07-30 11:02:00,
2013-07-30 03:22:00,59.0,52.0,30.11,West,259,0.0,0.0,79,0.00,,,0.00,,2013-07-30 11:22:00,
2013-07-30 03:33:00,59.0,52.0,30.11,West,259,0.0,0.0,79,0.00,,,0.00,,2013-07-30 11:33:00,
2013-07-30 03:43:00,59.0,51.0,30.12,West,259,0.0,0.0,76,0.00,,,0.00,,2013-07-30 11:43:00,
2013-07-30 03:53:00,59.0,51.0,30.12,West,259,0.0,0.0,76,0.00,,,0.00,,2013-07-30 11:53:00,
2013-07-30 04:12:00,59.0,51.0,30.12,West,259,0.0,0.0,76,0.00,,,0.00,,2013-07-30 12:12:00,
2013-07-30 04:22:00,57.0,50.0,30.13,West,259,0.0,0.0,78,0.00,,,0.00,,2013-07-30 12:22:00,
2013-07-30 04:33:00,57.0,50.0,30.13,West,259,0.0,0.0,78,0.00,,,0.00,,2013-07-30 12:33:00,
2013-07-30 04:53:00,56.0,50.0,30.13,West,259,0.0,1.0,81,0.00,,,0.00,,2013-07-30 12:53:00,
2013-07-30 05:22:00,55.0,50.0,30.14,West,259,0.0,0.0,82,0.00,,,0.00,,2013-07-30 13:22:00,
2013-07-30 05:32:00,55.0,50.0,30.14,West,259,0.0,0.0,82,0.00,,,0.00,,2013-07-30 13:32:00,
2013-07-30 06:02:00,54.0,49.0,30.14,West,259,0.0,1.0,82,0.00,,,0.00,,2013-07-30 14:02:00,
2013-07-30 06:32:00,54.0,49.0,30.14,West,259,0.0,0.0,84,0.00,,,0.00,,2013-07-30 14:32:00,
2013-07-30 06:53:00,53.0,48.0,30.15,West,259,0.0,0.0,83,0.00,,,0.00,,2013-07-30 14:53:00,
2013-07-30 07:02:00,53.0,48.0,30.15,West,259,0.0,0.0,83,0.00,,,0.00,,2013-07-30 15:02:00,
2013-07-30 07:22:00,55.0,51.0,30.15,West,259,0.0,0.0,85,0.00,,,0.00,,2013-07-30 15:22:00,
2013-07-30 07:33:00,55.0,51.0,30.15,West,259,0.0,0.0,85,0.00,,,0.00,,2013-07-30 15:33:00,
2013-07-30 07:43:00,56.0,51.0,30.16,West,259,0.0,0.0,84,0.00,,,0.00,,2013-07-30 15:43:00,
2013-07-30 07:52:00,56.0,51.0,30.16,West,259,0.0,0.0,84,0.00,,,0.00,,2013-07-30 15:52:00,
2013-07-30 08:02:00,56.0,51.0,30.16,West,259,0.0,0.0,84,0.00,,,0.00,,2013-07-30 16:02:00,
2013-07-30 08:12:00,56.0,51.0,30.16,West,259,0.0,0.0,84,0.00,,,0.00,,2013-07-30 16:12:00,
2013-07-30 08:22:00,56.0,51.0,30.16,West,259,0.0,0.0,83,0.00,,,0.00,,2013-07-30 16:22:00,
2013-07-30 08:33:00,56.0,51.0,30.16,West,259,0.0,0.0,83,0.00,,,0.00,,2013-07-30 16:33:00,
2013-07-30 08:43:00,57.0,52.0,30.16,West,259,0.0,1.0,82,0.00,,,0.00,,2013-07-30 16:43:00,
2013-07-30 09:02:00,57.0,52.0,30.16,West,259,0.0,1.0,82,0.00,,,0.00,,2013-07-30 17:02:00,
2013-07-30 09:22:00,59.0,53.0,30.16,West,259,0.0,2.0,81,0.00,,,0.00,,2013-07-30 17:22:00,
2013-07-30 09:32:00,59.0,53.0,30.16,West,259,0.0,2.0,81,0.00,,,0.00,,2013-07-30 17:32:00,
2013-07-30 09:43:00,60.0,54.0,30.17,West,259,0.0,0.0,80,0.00,,,0.00,,2013-07-30 17:43:00,
2013-07-30 09:53:00,60.0,54.0,30.17,West,259,0.0,0.0,80,0.00,,,0.00,,2013-07-30 17:53:00,
2013-07-30 10:02:00,60.0,54.0,30.17,West,259,0.0,0.0,80,0.00,,,0.00,,2013-07-30 18:02:00,
2013-07-30 10:22:00,62.0,55.0,30.17,SW,223,0.0,0.0,78,0.00,,,0.00,,2013-07-30 18:22:00,
2013-07-30 10:32:00,62.0,55.0,30.17,SW,223,0.0,0.0,78,0.00,,,0.00,,2013-07-30 18:32:00,
2013-07-30 10:42:00,62.0,55.0,30.17,SW,223,0.0,0.0,78,0.00,,,0.00,,2013-07-30 18:42:00,
2013-07-30 10:52:00,64.0,56.0,30.17,SSW,195,0.0,2.0,76,0.00,,,0.00,,2013-07-30 18:52:00,
2013-07-30 11:02:00,64.0,56.0,30.17,SSW,195,0.0,2.0,76,0.00,,,0.00,,2013-07-30 19:02:00,
2013-07-30 11:22:00,66.0,54.0,30.17,South,181,1.0,4.0,65,0.00,,,0.00,,2013-07-30 19:22:00,
2013-07-30 11:33:00,66.0,54.0,30.17,South,181,1.0,4.0,65,0.00,,,0.00,,2013-07-30 19:33:00,
2013-07-30 11:43:00,69.0,55.0,30.16,SSE,159,0.0,3.0,62,0.00,,,0.00,,2013-07-30 19:43:00,
2013-07-30 11:52:00,69.0,55.0,30.16,SSE,159,0.0,3.0,62,0.00,,,0.00,,2013-07-30 19:52:00,
2013-07-30 12:02:00,69.0,55.0,30.16,SSE,159,0.0,3.0,62,0.00,,,0.00,,2013-07-30 20:02:00,
2013-07-30 12:12:00,69.0,55.0,30.16,SSE,159,0.0,3.0,62,0.00,,,0.00,,2013-07-30 20:12:00,
2013-07-30 12:22:00,71.0,55.0,30.16,SE,132,1.0,4.0,58,0.00,,,0.00,,2013-07-30 20:22:00,
2013-07-30 12:32:00,71.0,55.0,30.16,SE,132,1.0,4.0,58,0.00,,,0.00,,2013-07-30 20:32:00,
2013-07-30 13:02:00,72.0,55.0,30.15,SSW,195,2.0,6.0,56,0.00,,,0.00,,2013-07-30 21:02:00,
2013-07-30 13:22:00,73.0,55.0,30.15,South,178,2.0,4.0,53,0.00,,,0.00,,2013-07-30 21:22:00,
2013-07-30 13:32:00,73.0,55.0,30.15,South,178,2.0,4.0,53,0.00,,,0.00,,2013-07-30 21:32:00,
2013-07-30 13:52:00,74.0,56.0,30.15,ENE,69,1.0,3.0,53,0.00,,,0.00,,2013-07-30 21:52:00,
2013-07-30 14:02:00,74.0,56.0,30.15,ENE,69,1.0,3.0,53,0.00,,,0.00,,2013-07-30 22:02:00,
2013-07-30 14:11:00,74.0,56.0,30.15,ENE,69,1.0,3.0,53,0.00,,,0.00,,2013-07-30 22:11:00,
2013-07-30 14:22:00,75.0,54.0,30.14,WSW,251,1.0,5.0,48,0.00,,,0.00,,2013-07-30 22:22:00,
2013-07-30 14:32:00,75.0,54.0,30.14,WSW,251,1.0,5.0,48,0.00,,,0.00,,2013-07-30 22:32:00,
2013-07-30 14:43:00,75.0,54.0,30.14,WSW,251,1.0,5.0,48,0.00,,,0.00,,2013-07-30 22:43:00,
2013-07-30 14:52:00,76.0,53.0,30.14,SW,229,3.0,6.0,45,0.00,,,0.00,,2013-07-30 22:52:00,
2013-07-30 15:02:00,76.0,53.0,30.14,SW,229,3.0,6.0,45,0.00,,,0.00,,2013-07-30 23:02:00,
2013-07-30 15:12:00,77.0,53.0,30.13,SSE,161,1.0,5.0,44,0.00,,,0.00,,2013-07-30 23:12:00,
2013-07-30 15:22:00,77.0,53.0,30.13,SSE,161,1.0,5.0,44,0.00,,,0.00,,2013-07-30 23:22:00,
2013-07-30 15:32:00,77.0,53.0,30.13,SSE,161,1.0,5.0,44,0.00,,,0.00,,2013-07-30 23:32:00,
2013-07-30 15:53:00,76.0,52.0,30.13,West,267,2.0,6.0,44,0.00,,,0.00,,2013-07-30 23:53:00,
2013-07-30 16:02:00,76.0,52.0,30.13,West,267,2.0,6.0,44,0.00,,,0.00,,2013-07-31 00:02:00,
2013-07-30 16:12:00,76.0,52.0,30.13,West,267,2.0,6.0,44,0.00,,,0.00,,2013-07-31 00:12:00,
2013-07-30 16:22:00,76.0,52.0,30.13,West,259,2.0,5.0,43,0.00,,,0.00,,2013-07-31 00:22:00,
2013-07-30 16:32:00,76.0,52.0,30.13,West,259,2.0,5.0,43,0.00,,,0.00,,2013-07-31 00:32:00,
2013-07-30 16:43:00,76.0,52.0,30.12,SW,217,1.0,6.0,43,0.00,,,0.00,,2013-07-31 00:43:00,
2013-07-30 16:53:00,76.0,52.0,30.12,SW,217,1.0,6.0,43,0.00,,,0.00,,2013-07-31 00:53:00,
2013-07-30 17:02:00,76.0,52.0,30.12,SW,217,1.0,6.0,43,0.00,,,0.00,,2013-07-31 01:02:00,
2013-07-30 17:12:00,76.0,52.0,30.12,SW,217,1.0,6.0,43,0.00,,,0.00,,2013-07-31 01:12:00,
2013-07-30 17:22:00,77.0,52.0,30.12,WSW,254,2.0,7.0,42,0.00,,,0.00,,2013-07-31 01:22:00,
2013-07-30 17:32:00,77.0,52.0,30.12,WSW,254,2.0,7.0,42,0.00,,,0.00,,2013-07-31 01:32:00,
2013-07-30 17:43:00,77.0,52.0,30.12,WSW,254,2.0,7.0,42,0.00,,,0.00,,2013-07-31 01:43:00,
2013-07-30 17:52:00,76.0,52.0,30.11,West,260,2.0,4.0,43,0.00,,,0.00,,2013-07-31 01:52:00,
2013-07-30 18:02:00,76.0,52.0,30.11,West,260,2.0,4.0,43,0.00,,,0.00,,2013-07-31 02:02:00,
2013-07-30 18:11:00,75.0,52.0,30.11,West,261,1.0,3.0,45,0.00,,,0.00,,2013-07-31 02:11:00,
2013-07-30 18:12:00,76.0,52.0,30.11,West,260,2.0,4.0,43,0.00,,,0.00,,2013-07-31 02:12:00,
2013-07-30 18:22:00,76.0,52.0,30.11,West,260,2.0,4.0,43,0.00,,,0.00,,2013-07-31 02:22:00,
2013-07-30 18:43:00,75.0,52.0,30.11,West,261,1.0,3.0,45,0.00,,,0.00,,2013-07-31 02:43:00,
2013-07-30 18:52:00,75.0,52.0,30.11,West,261,1.0,3.0,45,0.00,,,0.00,,2013-07-31 02:52:00,
2013-07-30 19:02:00,75.0,52.0,30.11,West,261,1.0,3.0,45,0.00,,,0.00,,2013-07-31 03:02:00,
2013-07-30 19:22:00,74.0,51.0,30.11,WSW,253,1.0,5.0,45,0.00,,,0.00,,2013-07-31 03:22:00,
2013-07-30 19:32:00,74.0,51.0,30.11,WSW,253,1.0,5.0,45,0.00,,,0.00,,2013-07-31 03:32:00,
2013-07-30 19:42:00,74.0,51.0,30.11,WSW,253,1.0,5.0,45,0.00,,,0.00,,2013-07-31 03:42:00,
2013-07-30 19:52:00,73.0,52.0,30.11,West,259,1.0,5.0,47,0.00,,,0.00,,2013-07-31 03:52:00,
2013-07-30 20:02:00,73.0,52.0,30.11,West,259,1.0,5.0,47,0.00,,,0.00,,2013-07-31 04:02:00,
2013-07-30 20:12:00,73.0,52.0,30.11,West,259,1.0,5.0,47,0.00,,,0.00,,2013-07-31 04:12:00,
2013-07-30 20:22:00,73.0,52.0,30.11,WSW,253,1.0,3.0,47,0.00,,,0.00,,2013-07-31 04:22:00,
2013-07-30 20:32:00,73.0,52.0,30.11,WSW,253,1.0,3.0,47,0.00,,,0.00,,2013-07-31 04:32:00,
2013-07-30 20:42:00,73.0,52.0,30.11,WSW,253,1.0,3.0,47,0.00,,,0.00,,2013-07-31 04:42:00,
2013-07-30 20:52:00,73.0,52.0,30.11,WSW,253,1.0,3.0,47,0.00,,,0.00,,2013-07-31 04:52:00,
2013-07-30 21:02:00,73.0,52.0,30.11,SW,226,1.0,3.0,48,0.00,,,0.00,,2013-07-31 05:02:00,
2013-07-30 21:22:00,72.0,53.0,30.11,SW,226,0.0,1.0,51,0.00,,,0.00,,2013-07-31 05:22:00,
2013-07-30 21:32:00,72.0,53.0,30.11,SW,226,0.0,1.0,51,0.00,,,0.00,,2013-07-31 05:32:00,
2013-07-30 21:42:00,71.0,54.0,30.11,SW,226,0.0,1.0,54,0.00,,,0.00,,2013-07-31 05:42:00,
2013-07-30 21:52:00,71.0,54.0,30.11,SW,226,0.0,1.0,54,0.00,,,0.00,,2013-07-31 05:52:00,
2013-07-30 22:02:00,71.0,54.0,30.11,SW,226,0.0,1.0,54,0.00,,,0.00,,2013-07-31 06:02:00,
2013-07-30 22:12:00,71.0,54.0,30.11,SW,226,0.0,1.0,54,0.00,,,0.00,,2013-07-31 06:12:00,
2013-07-30 22:22:00,69.0,55.0,30.11,SW,226,0.0,0.0,61,0.00,,,0.00,,2013-07-31 06:22:00,
2013-07-30 22:32:00,69.0,55.0,30.11,SW,226,0.0,0.0,61,0.00,,,0.00,,2013-07-31 06:32:00,
2013-07-30 22:42:00,67.0,54.0,30.11,SW,226,0.0,0.0,64,0.00,,,0.00,,2013-07-31 06:42:00,
2013-07-30 22:52:00,67.0,54.0,30.11,SW,226,0.0,0.0,64,0.00,,,0.00,,2013-07-31 06:52:00,
2013-07-30 23:02:00,67.0,54.0,30.11,SW,226,0.0,0.0,64,0.00,,,0.00,,2013-07-31 07:02:00,
2013-07-30 23:12:00,67.0,54.0,30.11,SW,226,0.0,0.0,64,0.00,,,0.00,,2013-07-31 07:12:00,
2013-07-30 23:22:00,65.0,53.0,30.12,SW,226,0.0,1.0,65,0.00,,,0.00,,2013-07-31 07:22:00,
2013-07-30 23:32:00,65.0,53.0,30.12,SW,226,0.0,1.0,65,0.00,,,0.00,,2013-07-31 07:32:00,
2013-07-30 23:52:00,62.0,52.0,30.12,SW,226,0.0,0.0,70,0.00,,,0.00,,2013-07-31 07:52:00,